Time;durP1;ratioP1;P1;durP2;ratioP2;P2;SDS_P1;SDS_P2;PMS_P1;PMS_P2;Temp;Humidity;BMP_temperature;BMP_pressure;BME280_temperature;BME280_humidity;BME280_pressure;Samples;Min_cycle;Max_cycle;Signal;HPM_P1;HPM_P2
2021/10/05 00:01:03;;;;;;;29.60;3.77;;;;;;;;;;4826957;28;20214;-77
2021/10/05 00:03:25;;;;;;;14.10;1.90;;;;;;;;;;4828681;28;20194;-77
2021/10/05 00:05:48;;;;;;;12.57;1.77;;;;;;;;;;4826850;28;20230;-75
2021/10/05 00:08:11;;;;;;;22.50;3.03;;;;;;;;;;4788972;28;1120006;-79
2021/10/05 00:10:33;;;;;;;13.37;1.83;;;;;;;;;;4830126;28;20249;-76
2021/10/05 00:12:56;;;;;;;18.97;2.47;;;;;;;;;;4813197;28;20200;-78
2021/10/05 00:15:21;;;;;;;9.80;1.40;;;9.80;38.80;;;;;;4830831;28;20212;-74
2021/10/05 00:17:44;;;;;;;12.63;1.83;;;;;;;;;;4846035;28;20583;-79
2021/10/05 00:20:08;;;;;;;12.73;1.77;;;9.70;38.80;;;;;;4829735;28;20219;-77
2021/10/05 00:22:31;;;;;;;12.73;1.83;;;;;;;;;;4828788;28;20254;-79
2021/10/05 00:24:54;;;;;;;19.87;2.57;;;;;;;;;;4827750;28;20653;-79
2021/10/05 00:27:16;;;;;;;9.37;1.33;;;;;;;;;;4828076;28;20249;-78
2021/10/05 00:29:39;;;;;;;10.10;1.60;;;;;;;;;;4842638;28;20199;-80
2021/10/05 00:32:04;;;;;;;18.20;2.43;;;9.60;40.20;;;;;;4809872;28;20215;-81
2021/10/05 00:34:26;;;;;;;9.87;1.50;;;;;;;;;;4828388;28;20203;-77
2021/10/05 00:36:49;;;;;;;11.10;1.60;;;;;;;;;;4826512;28;20206;-79
2021/10/05 00:39:12;;;;;;;12.13;1.70;;;;;;;;;;4855235;28;20260;-79
2021/10/05 00:41:35;;;;;;;15.77;2.23;;;;;;;;;;4844661;28;20308;-79
2021/10/05 00:44:00;;;;;;;17.60;2.43;;;9.50;39.60;;;;;;4830197;28;20213;-79
2021/10/05 00:46:23;;;;;;;12.20;1.90;;;;;;;;;;4829545;28;20249;-79
2021/10/05 00:48:47;;;;;;;13.73;2.03;;;9.40;39.30;;;;;;4828815;28;20645;-80
2021/10/05 00:51:09;;;;;;;10.50;1.57;;;;;;;;;;4830031;28;20196;-79
2021/10/05 00:53:32;;;;;;;8.00;1.20;;;;;;;;;;4828047;28;20649;-75
2021/10/05 00:55:55;;;;;;;20.57;2.73;;;9.40;39.20;;;;;;4827295;28;20191;-79
2021/10/05 00:58:18;;;;;;;13.90;1.87;;;;;;;;;;4850392;28;20565;-73
2021/10/05 01:00:41;;;;;;;89.87;11.07;;;;;;;;;;4825452;28;20267;-78
2021/10/05 01:03:04;;;;;;;17.63;2.37;;;;;;;;;;4831578;28;20269;-75
2021/10/05 01:05:27;;;;;;;9.77;1.40;;;9.50;39.80;;;;;;4824847;28;20668;-75
2021/10/05 01:07:51;;;;;;;13.10;1.90;;;9.50;39.80;;;;;;4829654;28;20895;-78
2021/10/05 01:10:17;;;;;;;11.87;1.70;;;;;;;;;;4829442;28;20220;-78
2021/10/05 01:12:39;;;;;;;15.50;2.13;;;;;;;;;;4841900;28;20257;-78
2021/10/05 01:15:02;;;;;;;12.33;1.80;;;;;;;;;;4809680;28;20211;-79
2021/10/05 01:17:25;;;;;;;11.83;1.70;;;;;;;;;;4833407;28;20191;-75
2021/10/05 01:19:47;;;;;;;13.47;1.83;;;;;;;;;;4826368;28;20188;-78
2021/10/05 01:22:11;;;;;;;8.80;1.30;;;9.50;38.30;;;;;;4832201;28;20273;-78
2021/10/05 01:24:34;;;;;;;12.67;1.87;;;9.50;38.50;;;;;;4817092;28;20700;-77
2021/10/05 01:26:58;;;;;;;15.37;2.07;;;9.50;38.60;;;;;;4814409;28;20667;-77
2021/10/05 01:29:22;;;;;;;10.97;1.60;;;9.50;38.70;;;;;;4826657;28;20192;-75
2021/10/05 01:31:46;;;;;;;16.17;2.07;;;9.50;38.70;;;;;;4826774;28;20238;-79
2021/10/05 01:34:09;;;;;;;6.57;1.07;;;9.40;38.70;;;;;;4841592;28;20612;-77
2021/10/05 01:36:34;;;;;;;13.30;1.73;;;;;;;;;;4831483;28;20194;-80
2021/10/05 01:38:58;;;;;;;19.23;2.50;;;9.40;39.40;;;;;;4826186;28;20234;-74
2021/10/05 01:41:21;;;;;;;13.53;1.87;;;;;;;;;;4826898;28;20211;-77
2021/10/05 01:43:43;;;;;;;13.90;1.93;;;;;;;;;;4831998;28;20229;-74
2021/10/05 01:46:11;;;;;;;19.87;2.60;;;;;;;;;;4830187;28;20191;-77
2021/10/05 01:48:34;;;;;;;12.47;1.77;;;;;;;;;;4828269;28;20292;-77
2021/10/05 01:50:57;;;;;;;16.30;2.10;;;;;;;;;;4829070;28;20236;-76
2021/10/05 01:53:19;;;;;;;11.10;1.50;;;;;;;;;;4828347;28;20182;-79
2021/10/05 01:55:43;;;;;;;15.10;2.03;;;9.40;38.80;;;;;;4826355;28;20191;-74
2021/10/05 01:58:06;;;;;;;29.50;3.70;;;;;;;;;;4825653;28;20188;-77
2021/10/05 02:00:29;;;;;;;39.77;4.97;;;;;;;;;;4825623;28;20202;-75
2021/10/05 02:02:54;;;;;;;15.57;1.97;;;;;;;;;;4820911;28;20606;-74
2021/10/05 02:05:16;;;;;;;8.67;1.30;;;;;;;;;;4826227;28;20191;-74
2021/10/05 02:07:39;;;;;;;12.60;1.73;;;9.30;38.40;;;;;;4841529;28;20947;-73
2021/10/05 02:10:02;;;;;;;17.90;2.27;;;;;;;;;;4830527;28;20247;-74
2021/10/05 02:12:27;;;;;;;13.03;1.87;;;9.40;37.60;;;;;;4827482;28;20255;-75
2021/10/05 02:14:50;;;;;;;9.53;1.47;;;;;;;;;;4808325;28;20856;-74
2021/10/05 02:17:13;;;;;;;10.37;1.43;;;;;;;;;;4826300;28;20262;-75
2021/10/05 02:19:35;;;;;;;13.60;1.83;;;;;;;;;;4833062;28;20203;-74
2021/10/05 02:21:58;;;;;;;15.07;1.93;;;;;;;;;;4825899;28;20269;-75
2021/10/05 02:27:01;;;;;;;19.20;2.47;;;;;;;;;;4845901;28;20911;-75
2021/10/05 02:29:25;;;;;;;15.57;2.00;;;9.50;35.50;;;;;;4808795;28;20261;-75
2021/10/05 02:31:48;;;;;;;10.63;1.47;;;;;;;;;;4828798;28;20195;-75
2021/10/05 02:34:12;;;;;;;13.67;1.87;;;;;;;;;;4821600;28;20594;-81
2021/10/05 02:36:35;;;;;;;12.67;1.70;;;;;;;;;;4826567;28;20196;-80
2021/10/05 02:38:58;;;;;;;18.50;2.33;;;;;;;;;;4825301;28;20191;-79
2021/10/05 02:41:21;;;;;;;13.90;1.93;;;;;;;;;;4825972;28;20270;-80
2021/10/05 02:43:44;;;;;;;12.77;1.70;;;;;;;;;;4828542;28;20277;-79
2021/10/05 02:46:07;;;;;;;16.97;2.30;;;9.40;36.20;;;;;;4810542;28;20265;-75
2021/10/05 02:48:30;;;;;;;6.97;1.07;;;;;;;;;;4826301;28;20241;-75
2021/10/05 02:50:53;;;;;;;19.10;2.40;;;;;;;;;;4823099;28;20199;-80
2021/10/05 02:53:16;;;;;;;10.63;1.60;;;;;;;;;;4828315;28;20236;-74
2021/10/05 02:55:40;;;;;;;14.23;1.97;;;;;;;;;;4822379;28;20198;-78
2021/10/05 02:58:03;;;;;;;31.70;4.03;;;;;;;;;;4833157;28;20665;-76
2021/10/05 03:00:26;;;;;;;18.87;2.57;;;;;;;;;;4829885;28;20195;-73
2021/10/05 03:02:49;;;;;;;11.80;1.60;;;9.60;32.70;;;;;;4834410;28;20293;-73
2021/10/05 03:05:12;;;;;;;13.27;1.83;;;;;;;;;;4829358;28;20203;-73
2021/10/05 03:07:35;;;;;;;13.53;1.87;;;;;;;;;;4831812;28;20222;-75
2021/10/05 03:09:58;;;;;;;11.53;1.67;;;;;;;;;;4813641;28;20183;-73
2021/10/05 03:12:21;;;;;;;12.20;1.73;;;;;;;;;;4813979;28;20262;-74
2021/10/05 03:14:44;;;;;;;9.80;1.43;;;;;;;;;;4829335;28;20238;-74
2021/10/05 03:17:06;;;;;;;18.97;2.50;;;;;;;;;;4828678;28;20188;-76
2021/10/05 03:19:30;;;;;;;9.73;1.33;;;9.90;30.90;;;;;;4830275;28;20249;-73
2021/10/05 03:21:53;;;;;;;24.33;3.13;;;;;;;;;;4846361;28;20213;-74
2021/10/05 03:24:16;;;;;;;11.23;1.63;;;;;;;;;;4814313;28;20208;-74
2021/10/05 03:26:38;;;;;;;13.97;1.97;;;9.90;31.30;;;;;;4828751;28;20199;-76
2021/10/05 03:29:01;;;;;;;16.13;2.20;;;;;;;;;;4830761;28;20238;-74
2021/10/05 03:31:24;;;;;;;12.90;1.87;;;;;;;;;;4828922;28;20274;-74
2021/10/05 03:33:47;;;;;;;13.00;1.87;;;;;;;;;;4831653;28;20183;-74
2021/10/05 03:36:12;;;;;;;15.80;2.20;;;9.90;31.50;;;;;;4831025;28;20194;-74
2021/10/05 03:38:35;;;;;;;12.43;1.73;;;;;;;;;;4813546;28;20774;-76
2021/10/05 03:40:58;;;;;;;15.40;2.10;;;;;;;;;;4814030;28;20203;-73
2021/10/05 03:43:20;;;;;;;14.03;1.97;;;;;;;;;;4830789;28;20210;-75
2021/10/05 03:45:43;;;;;;;13.27;1.77;;;;;;;;;;4828669;28;20551;-74
2021/10/05 03:48:06;;;;;;;33.37;4.20;;;;;;;;;;4832699;28;20187;-74
2021/10/05 03:50:28;;;;;;;14.10;1.93;;;;;;;;;;4829766;28;20190;-73
2021/10/05 03:52:52;;;;;;;11.40;1.57;;;10.00;30.50;;;;;;4828529;28;20237;-73
2021/10/05 03:55:15;;;;;;;8.63;1.23;;;;;;;;;;4844182;28;20189;-74
2021/10/05 03:57:39;;;;;;;12.63;1.73;;;;;;;;;;4853786;28;20194;-74
2021/10/05 04:00:02;;;;;;;20.97;2.63;;;;;;;;;;4846819;28;20240;-75
2021/10/05 04:02:26;;;;;;;15.63;2.17;;;;;;;;;;4826070;28;20297;-74
2021/10/05 04:04:49;;;;;;;13.23;1.83;;;;;;;;;;4828529;28;20303;-74
2021/10/05 04:07:12;;;;;;;22.10;2.77;;;;;;;;;;4827776;28;20236;-73
2021/10/05 04:09:36;;;;;;;14.17;1.93;;;9.80;31.70;;;;;;4830325;28;20183;-74
2021/10/05 04:11:58;;;;;;;19.20;2.40;;;;;;;;;;4846014;28;20190;-74
2021/10/05 04:14:22;;;;;;;14.87;2.03;;;;;;;;;;4827888;28;20205;-73
2021/10/05 04:16:45;;;;;;;12.83;1.70;;;;;;;;;;4833899;28;20187;-73
2021/10/05 04:19:07;;;;;;;17.57;2.13;;;;;;;;;;4827322;28;20192;-74
2021/10/05 04:21:30;;;;;;;12.83;1.67;;;;;;;;;;4829052;28;20191;-74
2021/10/05 04:23:53;;;;;;;14.77;2.03;;;;;;;;;;4827967;28;20604;-74
2021/10/05 04:26:17;;;;;;;12.10;1.73;;;9.80;30.40;;;;;;4826403;28;20191;-73
2021/10/05 04:28:40;;;;;;;15.53;2.10;;;;;;;;;;4830179;28;20638;-77
2021/10/05 04:31:02;;;;;;;19.77;2.57;;;;;;;;;;4830491;28;20251;-74
2021/10/05 04:33:25;;;;;;;12.13;1.67;;;;;;;;;;4828804;28;20568;-74
2021/10/05 04:35:48;;;;;;;17.10;2.30;;;;;;;;;;4825255;28;20176;-73
2021/10/05 04:38:10;;;;;;;29.83;3.67;;;;;;;;;;4829335;28;20191;-75
2021/10/05 04:40:33;;;;;;;10.43;1.53;;;;;;;;;;4827965;28;20260;-74
2021/10/05 04:42:58;;;;;;;22.03;2.87;;;9.80;30.00;;;;;;4827414;28;20214;-73
2021/10/05 04:45:21;;;;;;;14.67;2.03;;;;;;;;;;4830494;28;20249;-74
2021/10/05 04:47:44;;;;;;;12.50;1.77;;;;;;;;;;4827575;28;20261;-76
2021/10/05 04:50:09;;;;;;;20.27;2.70;;;9.80;30.30;;;;;;4823649;28;20653;-75
2021/10/05 04:52:32;;;;;;;10.13;1.53;;;;;;;;;;4816564;28;20239;-74
2021/10/05 04:54:54;;;;;;;19.23;2.57;;;;;;;;;;4812530;28;20204;-74
2021/10/05 04:57:17;;;;;;;23.50;3.00;;;;;;;;;;4829675;28;20186;-73
2021/10/05 04:59:41;;;;;;;22.67;2.90;;;9.90;99.90;;;;;;4822051;28;20250;-75
2021/10/05 05:02:04;;;;;;;20.00;2.50;;;;;;;;;;4844025;28;20226;-74
2021/10/05 05:04:27;;;;;;;9.83;1.43;;;;;;;;;;4828408;28;20229;-74
2021/10/05 05:06:49;;;;;;;9.63;1.37;;;;;;;;;;4827233;28;20218;-75
2021/10/05 05:09:12;;;;;;;14.47;1.87;;;;;;;;;;4826529;28;20175;-74
2021/10/05 05:11:35;;;;;;;12.67;1.77;;;;;;;;;;4842588;28;20222;-75
2021/10/05 05:13:59;;;;;;;22.07;2.80;;;;;;;;;;4809589;28;20240;-75
2021/10/05 05:16:22;;;;;;;8.97;1.27;;;9.90;99.90;;;;;;4827163;28;20196;-74
2021/10/05 05:18:45;;;;;;;9.90;1.37;;;;;;;;;;4841258;28;20190;-74
2021/10/05 05:21:08;;;;;;;20.70;2.57;;;;;;;;;;4820063;28;20878;-74
2021/10/05 05:23:31;;;;;;;9.47;1.33;;;;;;;;;;4827447;28;20221;-75
2021/10/05 05:25:54;;;;;;;16.37;2.13;;;;;;;;;;4835332;28;20190;-74
2021/10/05 05:28:17;;;;;;;18.53;2.40;;;;;;;;;;4835218;28;20203;-74
2021/10/05 05:30:39;;;;;;;13.70;1.80;;;;;;;;;;4830185;28;20237;-74
2021/10/05 05:33:03;;;;;;;17.50;2.17;;;10.20;99.90;;;;;;4829409;28;20190;-74
2021/10/05 05:35:26;;;;;;;13.07;1.77;;;;;;;;;;4843299;28;20190;-73
2021/10/05 05:37:49;;;;;;;14.50;1.97;;;;;;;;;;4815008;28;20203;-74
2021/10/05 05:40:12;;;;;;;14.47;1.93;;;10.40;99.90;;;;;;4828873;28;20195;-74
2021/10/05 05:42:35;;;;;;;11.57;1.73;;;;;;;;;;4828560;28;20305;-74
2021/10/05 05:44:58;;;;;;;22.60;2.93;;;;;;;;;;4828051;28;20191;-74
2021/10/05 05:47:21;;;;;;;14.47;1.83;;;;;;;;;;4827735;28;20205;-74
2021/10/05 05:49:44;;;;;;;13.87;1.73;;;10.70;99.90;;;;;;4826015;28;20241;-73
2021/10/05 05:52:08;;;;;;;18.20;2.37;;;;;;;;;;4822881;28;20245;-73
2021/10/05 05:54:30;;;;;;;12.20;1.67;;;;;;;;;;4829144;28;20241;-74
2021/10/05 05:56:53;;;;;;;25.33;3.27;;;;;;;;;;4820647;28;20191;-74
2021/10/05 05:59:16;;;;;;;11.80;1.77;;;;;;;;;;4831138;28;20711;-73
2021/10/05 06:01:39;;;;;;;12.30;1.77;;;;;;;;;;4833130;28;20234;-74
2021/10/05 06:04:01;;;;;;;19.63;2.47;;;;;;;;;;4837268;28;20214;-73
2021/10/05 06:06:25;;;;;;;13.40;1.80;;;11.60;99.90;;;;;;4837453;28;20197;-73
2021/10/05 06:08:49;;;;;;;11.53;1.67;;;;;;;;;;4837078;28;20182;-74
2021/10/05 06:11:12;;;;;;;20.27;2.57;;;;;;;;;;4819084;28;20203;-74
2021/10/05 06:13:35;;;;;;;10.70;1.43;;;;;;;;;;4837443;28;20539;-73
2021/10/05 06:15:58;;;;;;;22.43;2.80;;;;;;;;;;4837234;28;20182;-73
2021/10/05 06:18:20;;;;;;;11.47;1.70;;;;;;;;;;4837039;28;20257;-74
2021/10/05 06:20:43;;;;;;;11.27;1.50;;;;;;;;;;4832745;28;20668;-75
2021/10/05 06:23:07;;;;;;;20.77;2.57;;;12.50;99.90;;;;;;4823856;28;20752;-75
2021/10/05 06:25:31;;;;;;;11.80;1.57;;;11.30;99.90;;;;;;4821211;28;20187;-75
2021/10/05 06:27:56;;;;;;;16.33;2.03;;;12.90;99.90;;;;;;4827593;28;20249;-74
2021/10/05 06:30:19;;;;;;;16.17;2.17;;;13.00;99.90;;;;;;4821015;28;20241;-75
2021/10/05 06:32:44;;;;;;;15.40;2.03;;;13.20;99.90;;;;;;4826488;28;20189;-79
2021/10/05 06:35:09;;;;;;;32.80;3.97;;;13.40;99.90;;;;;;4804122;28;20399;-80
2021/10/05 06:37:32;;;;;;;14.37;1.90;;;;;;;;;;4823739;28;20195;-75
2021/10/05 06:39:56;;;;;;;22.03;2.80;;;13.80;31.40;;;;;;4817019;28;20681;-76
2021/10/05 06:42:19;;;;;;;27.70;3.50;;;;;;;;;;4807232;28;20271;-75
2021/10/05 06:44:42;;;;;;;13.73;1.70;;;;;;;;;;4819118;28;20261;-78
2021/10/05 06:47:05;;;;;;;14.70;1.77;;;;;;;;;;4830830;28;20196;-81
2021/10/05 06:49:28;;;;;;;20.90;2.73;;;;;;;;;;4828326;28;20189;-78
2021/10/05 06:51:51;;;;;;;18.90;2.40;;;;;;;;;;4826239;28;20193;-77
2021/10/05 06:54:13;;;;;;;18.03;2.37;;;;;;;;;;4832801;28;20222;-79
2021/10/05 06:56:37;;;;;;;18.47;2.33;;;14.40;43.40;;;;;;4834622;28;20664;-79
2021/10/05 06:59:00;;;;;;;19.43;2.50;;;;;;;;;;4831853;28;20224;-81
2021/10/05 07:01:22;;;;;;;16.07;2.13;;;;;;;;;;4834022;28;20268;-82
2021/10/05 07:03:45;;;;;;;16.10;2.03;;;;;;;;;;4828111;28;20766;-81
2021/10/05 07:06:08;;;;;;;20.10;2.53;;;;;;;;;;4844633;28;20214;-80
2021/10/05 07:08:31;;;;;;;17.40;2.13;;;;;;;;;;4837687;28;20275;-82
2021/10/05 07:10:57;;;;;;;23.30;2.83;;;;;;;;;;4844337;28;20599;-80
2021/10/05 07:13:21;;;;;;;22.83;2.83;;;15.30;47.20;;;;;;4811730;28;20282;-81
2021/10/05 07:15:44;;;;;;;40.73;4.90;;;;;;;;;;4824664;28;20186;-81
2021/10/05 07:18:08;;;;;;;40.10;4.70;;;;;;;;;;4825098;28;20249;-80
2021/10/05 07:20:31;;;;;;;18.83;2.30;;;15.70;47.90;;;;;;4822786;28;20214;-83
2021/10/05 07:22:54;;;;;;;20.17;2.47;;;;;;;;;;4828288;28;20214;-79
2021/10/05 07:25:17;;;;;;;22.20;2.67;;;;;;;;;;4834571;28;20771;-82
2021/10/05 07:27:40;;;;;;;13.13;1.70;;;;;;;;;;4826718;28;20222;-81
2021/10/05 07:30:05;;;;;;;23.30;2.80;;;16.20;48.80;;;;;;4808880;28;20214;-82
2021/10/05 07:32:29;;;;;;;12.03;1.53;;;;;;;;;;4826824;28;20187;-87
2021/10/05 07:34:52;;;;;;;10.30;1.27;;;;;;;;;;4822417;28;20188;-91
2021/10/05 07:37:15;;;;;;;9.70;1.23;;;;;;;;;;4836768;28;20195;-89
2021/10/05 07:39:38;;;;;;;14.40;1.77;;;;;;;;;;4828757;28;20191;-88
2021/10/05 07:42:03;;;;;;;28.83;3.40;;;;;;;;;;4836717;28;20194;-79
2021/10/05 07:44:29;;;;;;;22.90;2.80;;;;;;;;;;4833204;28;20253;-83
2021/10/05 07:46:54;;;;;;;23.50;2.83;;;18.00;50.60;;;;;;4834650;28;20194;-82
2021/10/05 07:49:16;;;;;;;7.13;0.93;;;;;;;;;;4823711;28;20199;-87
2021/10/05 07:51:39;;;;;;;15.33;1.97;;;;;;;;;;4843614;28;20242;-85
2021/10/05 07:54:02;;;;;;;23.90;2.83;;;;;;;;;;4830135;28;20661;-77
2021/10/05 07:56:25;;;;;;;9.03;1.13;;;;;;;;;;4834317;28;20199;-89
2021/10/05 07:58:48;;;;;;;8.53;1.07;;;;;;;;;;4843496;28;20612;-86
2021/10/05 08:01:11;;;;;;;19.70;2.43;;;;;;;;;;4838887;28;20270;-80
2021/10/05 08:03:34;;;;;;;18.57;2.30;;;19.50;52.00;;;;;;4830404;28;20300;-80
2021/10/05 08:05:57;;;;;;;16.70;1.97;;;;;;;;;;4836230;28;20191;-81
2021/10/05 08:08:20;;;;;;;13.27;1.60;;;;;;;;;;4839772;28;20218;-82
2021/10/05 08:10:43;;;;;;;14.80;1.83;;;;;;;;;;4833050;28;20244;-89
2021/10/05 08:13:07;;;;;;;15.13;1.83;;;;;;;;;;4834823;28;20188;-79
2021/10/05 08:15:30;;;;;;;6.57;0.87;;;;;;;;;;4824383;28;20199;-88
2021/10/05 08:17:52;;;;;;;13.67;1.67;;;;;;;;;;4836604;28;20217;-79
2021/10/05 08:20:16;;;;;;;10.63;1.40;;;19.90;52.80;;;;;;4817118;28;20192;-85
2021/10/05 08:22:39;;;;;;;13.40;1.63;;;;;;;;;;4840646;28;20183;-79
2021/10/05 08:25:02;;;;;;;20.50;2.47;;;;;;;;;;4840379;28;20261;-85
2021/10/05 08:27:25;;;;;;;10.10;1.30;;;;;;;;;;4839957;28;20238;-86
2021/10/05 08:29:48;;;;;;;22.83;2.80;;;;;;;;;;4825007;28;20222;-80
2021/10/05 08:32:11;;;;;;;22.23;2.60;;;;;;;;;;4861154;28;20199;-83
2021/10/05 08:34:34;;;;;;;10.10;1.23;;;20.60;53.70;;;;;;4859840;28;20209;-82
2021/10/05 08:36:58;;;;;;;20.83;2.40;;;20.80;53.90;;;;;;4856789;28;20194;-80
2021/10/05 08:39:21;;;;;;;12.53;1.60;;;;;;;;;;4874957;28;20183;-89
2021/10/05 08:41:45;;;;;;;12.53;1.47;;;21.20;54.20;;;;;;4860254;28;20223;-82
2021/10/05 08:44:09;;;;;;;22.20;2.90;;;21.50;54.40;;;;;;4873779;28;20651;-89
2021/10/05 08:46:37;;;;;;;22.70;2.67;;;21.70;54.60;;;;;;4859449;28;20717;-79
2021/10/05 08:49:00;;;;;;;26.40;2.93;;;;;;;;;;4858131;28;20726;-87
2021/10/05 08:51:23;;;;;;;14.00;1.63;;;;;;;;;;4841881;28;20248;-82
2021/10/05 08:53:46;;;;;;;11.07;1.33;;;22.70;55.80;;;;;;4836151;28;20251;-84
2021/10/05 08:56:11;;;;;;;17.33;1.97;;;23.00;56.20;;;;;;4838564;28;20285;-88
2021/10/05 08:58:42;;;;;;;14.07;1.73;;;23.50;56.60;;;;;;4838142;28;20190;-81
2021/10/05 09:01:10;;;;;;;23.77;2.70;;;23.90;57.20;;;;;;4851446;28;20206;-83
2021/10/05 09:03:33;;;;;;;14.30;1.73;;;;;;;;;;4818422;28;20245;-82
2021/10/05 09:05:56;;;;;;;28.93;3.70;;;;;;;;;;4836883;28;20240;-83
2021/10/05 09:08:22;;;;;;;30.20;6.17;;;25.40;43.90;;;;;;4869695;28;20258;-85
2021/10/05 09:10:46;;;;;;;17.53;2.13;;;26.00;44.40;;;;;;4838725;28;20241;-84
2021/10/05 09:13:09;;;;;;;28.87;3.93;;;;;;;;;;4836983;28;20608;-83
2021/10/05 09:15:36;;;;;;;24.80;3.03;;;;;;;;;;4831515;28;20191;-83
2021/10/05 09:18:00;;;;;;;34.90;19.27;;;28.00;46.10;;;;;;4837903;28;20739;-81
2021/10/05 09:20:25;;;;;;;22.90;8.63;;;28.50;46.60;;;;;;4836663;28;20657;-82
2021/10/05 09:22:58;;;;;;;21.83;3.37;;;29.00;47.00;;;;;;4839843;28;20220;-82
2021/10/05 09:25:27;;;;;;;26.70;16.67;;;29.50;47.30;;;;;;4823322;28;20222;-86
2021/10/05 09:27:51;;;;;;;34.40;27.83;;;29.90;47.50;;;;;;4838854;28;20199;-83
2021/10/05 09:30:16;;;;;;;38.10;31.83;;;30.30;47.90;;;;;;4815816;28;20681;-83
2021/10/05 09:32:39;;;;;;;26.17;19.00;;;;;;;;;;4834447;28;20196;-81
2021/10/05 09:35:02;;;;;;;31.73;6.63;;;;;;;;;;4815737;28;20617;-82
2021/10/05 09:37:28;;;;;;;20.33;5.17;;;33.00;49.10;;;;;;4817131;28;20208;-82
2021/10/05 09:39:54;;;;;;;14.30;1.70;;;34.80;49.90;;;;;;4817552;28;20254;-82
2021/10/05 09:42:25;;;;;;;9.77;1.20;;;36.70;50.80;;;;;;4817933;28;20973;-82
2021/10/05 09:44:55;;;;;;;16.90;2.05;;;38.50;51.60;;;;;;4833566;28;20256;-85
2021/10/05 09:47:17;;;;;;;10.10;1.30;;;;;;;;;;4834026;28;20233;-83
2021/10/05 09:49:45;;;;;;;15.65;1.95;;;40.40;52.40;;;;;;4819069;28;20238;-84
2021/10/05 09:52:09;;;;;;;25.83;3.13;;;;;;;;;;4832313;28;20667;-83
2021/10/05 09:54:31;;;;;;;13.88;1.75;;;;;;;;;;4833545;28;20218;-83
2021/10/05 09:56:55;;;;;;;14.98;1.83;;;42.00;53.10;;;;;;4836790;28;20237;-82
2021/10/05 09:59:18;;;;;;;10.77;1.33;;;;;;;;;;4819971;28;20214;-82
2021/10/05 10:01:42;;;;;;;25.17;3.30;;;43.40;53.60;;;;;;4816802;28;20227;-82
2021/10/05 10:04:05;;;;;;;18.77;2.25;;;44.40;54.00;;;;;;4817970;28;20199;-85
2021/10/05 10:06:28;;;;;;;16.52;2.03;;;;;;;;;;4802464;28;20202;-82
2021/10/05 10:08:53;;;;;;;14.63;1.83;;;45.50;54.40;;;;;;4835333;28;20198;-83
2021/10/05 10:11:16;;;;;;;12.45;1.63;;;;;;;;;;4836966;28;20224;-82
2021/10/05 10:13:42;;;;;;;14.07;1.80;;;46.60;54.80;;;;;;4836061;28;20186;-82
2021/10/05 10:16:05;;;;;;;22.65;2.80;;;;;;;;;;4836075;28;20206;-85
2021/10/05 10:18:28;;;;;;;10.75;1.40;;;47.40;55.10;;;;;;4819305;28;20517;-83
2021/10/05 10:21:04;;;;;;;15.15;1.83;;;47.70;55.20;;;;;;4802832;28;20212;-84
2021/10/05 10:23:28;;;;;;;18.30;2.35;;;48.20;55.40;;;;;;4835482;28;20197;-82
2021/10/05 10:25:56;;;;;;;47.92;5.60;;;48.40;55.50;;;;;;4801517;28;20195;-84
2021/10/05 10:28:18;;;;;;;18.33;2.17;;;;;;;;;;4819346;28;20187;-83
2021/10/05 10:30:50;;;;;;;16.95;2.00;;;48.90;55.60;;;;;;4828379;28;20198;-83
2021/10/05 10:33:13;;;;;;;13.65;1.67;;;;;;;;;;4837784;28;20206;-86
2021/10/05 10:35:47;;;;;;;13.30;1.65;;;49.20;55.70;;;;;;4852971;28;20255;-82
2021/10/05 10:38:10;;;;;;;26.92;3.15;;;;;;;;;;4855640;28;20177;-83
2021/10/05 10:40:37;;;;;;;14.20;1.77;;;49.40;55.80;;;;;;4855801;28;20189;-83
2021/10/05 10:43:11;;;;;;;28.13;3.28;;;49.70;55.90;;;;;;4837581;28;20249;-82
2021/10/05 10:45:45;;;;;;;20.15;2.47;;;49.90;56.00;;;;;;4855117;28;20174;-84
2021/10/05 10:48:08;;;;;;;24.88;2.95;;;;;;;;;;4821485;28;20234;-84
2021/10/05 10:50:37;;;;;;;15.25;1.88;;;50.30;56.10;;;;;;4837823;28;20659;-83
2021/10/05 10:53:05;;;;;;;24.85;2.85;;;50.40;56.20;;;;;;4855451;28;20193;-84
2021/10/05 10:55:37;;;;;;;18.05;2.20;;;50.60;56.30;;;;;;4853923;28;20363;-84
2021/10/05 10:58:04;;;;;;;29.25;3.42;;;;;;;;;;4836742;28;20190;-81
2021/10/05 11:00:28;;;;;;;32.50;3.67;;;50.60;56.30;;;;;;4836782;28;20202;-82
2021/10/05 11:02:54;;;;;;;14.63;1.77;;;50.00;56.10;;;;;;4840798;28;20230;-79
2021/10/05 11:05:20;;;;;;;13.05;1.65;;;;;;;;;;4836428;28;20182;-85
2021/10/05 11:07:43;;;;;;;18.63;2.35;;;;;;;;;;4834370;28;20230;-80
2021/10/05 11:10:08;;;;;;;21.33;2.65;;;48.80;55.60;;;;;;4818749;28;20195;-81
2021/10/05 11:12:31;;;;;;;12.90;1.67;;;;;;;;;;4851689;28;20621;-84
2021/10/05 11:14:54;;;;;;;15.95;2.08;;;;;;;;;;4835950;28;20248;-82
2021/10/05 11:17:18;;;;;;;13.88;1.77;;;;;;;;;;4838340;28;20182;-79
2021/10/05 11:19:42;;;;;;;13.80;1.80;;;50.60;56.30;;;;;;4839059;28;20256;-82
2021/10/05 11:22:08;;;;;;;19.52;2.35;;;51.20;56.50;;;;;;4851285;28;20251;-80
2021/10/05 11:24:40;;;;;;;17.95;2.28;;;51.60;56.60;;;;;;4859446;28;20232;-81
2021/10/05 11:27:11;;;;;;;21.98;2.72;;;52.00;56.70;;;;;;4858107;28;20946;-81
2021/10/05 11:29:34;;;;;;;18.95;2.42;;;;;;;;;;4824047;28;20195;-82
2021/10/05 11:31:59;;;;;;;26.77;3.17;;;52.70;57.00;;;;;;4858650;28;20236;-82
2021/10/05 11:34:22;;;;;;;14.25;1.85;;;52.70;57.00;;;;;;4841091;28;20190;-82
2021/10/05 11:36:46;;;;;;;19.02;2.33;;;52.60;57.00;;;;;;4839751;28;20238;-79
2021/10/05 11:39:10;;;;;;;21.90;2.67;;;52.40;57.00;;;;;;4821775;28;20253;-78
2021/10/05 11:41:42;;;;;;;13.57;1.75;;;51.70;56.80;;;;;;4838700;28;20187;-79
2021/10/05 11:44:15;;;;;;;23.15;2.75;;;51.50;56.80;;;;;;4838286;28;20244;-81
2021/10/05 11:46:38;;;;;;;12.23;1.55;;;;;;;;;;4821164;28;20268;-82
2021/10/05 11:49:00;;;;;;;20.33;2.45;;;;;;;;;;4839368;28;20727;-80
2021/10/05 11:51:25;;;;;;;15.18;1.88;;;46.10;55.10;;;;;;4838743;28;20186;-82
2021/10/05 11:53:48;;;;;;;11.15;1.42;;;47.00;55.30;;;;;;4839499;28;20557;-79
2021/10/05 11:56:13;;;;;;;23.10;2.67;;;48.30;55.70;;;;;;4838486;28;20289;-79
2021/10/05 11:58:48;;;;;;;13.73;1.70;;;49.10;56.00;;;;;;4839552;28;20191;-80
2021/10/05 12:01:17;;;;;;;45.78;5.38;;;49.70;56.20;;;;;;4835728;28;20198;-80
2021/10/05 12:03:40;;;;;;;10.00;1.33;;;;;;;;;;4838462;28;20190;-84
2021/10/05 12:06:03;;;;;;;22.48;2.67;;;;;;;;;;4820937;28;20191;-80
2021/10/05 12:08:26;;;;;;;15.88;2.03;;;;;;;;;;4839080;28;20237;-81
2021/10/05 12:10:54;;;;;;;10.80;1.40;;;47.50;55.50;;;;;;4821432;28;20284;-79
2021/10/05 12:13:17;;;;;;;10.85;1.40;;;;;;;;;;4838356;28;20256;-82
2021/10/05 12:15:40;;;;;;;29.95;3.60;;;;;;;;;;4838313;28;20215;-83
2021/10/05 12:18:06;;;;;;;22.52;2.85;;;48.80;55.90;;;;;;4839031;28;20273;-80
2021/10/05 12:20:29;;;;;;;14.82;1.90;;;;;;;;;;4839045;28;20187;-83
2021/10/05 12:22:52;;;;;;;22.40;2.78;;;;;;;;;;4838523;28;20292;-80
2021/10/05 12:25:17;;;;;;;9.45;1.20;;;48.90;55.90;;;;;;4838552;28;20253;-83
2021/10/05 12:27:42;;;;;;;14.50;1.85;;;49.90;56.30;;;;;;4838141;28;20241;-81
2021/10/05 12:30:08;;;;;;;25.60;3.08;;;50.70;56.50;;;;;;4842959;28;20216;-82
2021/10/05 12:32:40;;;;;;;13.40;1.73;;;50.30;56.40;;;;;;4840044;28;20290;-80
2021/10/05 12:35:06;;;;;;;16.85;2.10;;;49.90;56.30;;;;;;4839117;28;20664;-82
2021/10/05 12:37:35;;;;;;;14.10;1.85;;;50.00;56.30;;;;;;4839158;28;20234;-81
2021/10/05 12:40:00;;;;;;;17.77;2.20;;;50.40;56.40;;;;;;4857723;28;20244;-82
2021/10/05 12:42:22;;;;;;;13.88;1.77;;;;;;;;;;4857631;28;20186;-79
2021/10/05 12:44:55;;;;;;;19.52;2.53;;;50.00;56.40;;;;;;4857060;28;20272;-81
2021/10/05 12:47:18;;;;;;;15.85;2.03;;;;;;;;;;4844394;28;20666;-79
2021/10/05 12:49:52;;;;;;;14.43;1.77;;;49.80;56.30;;;;;;4838587;28;20195;-77
2021/10/05 12:52:15;;;;;;;8.82;1.13;;;49.60;56.20;;;;;;4838541;28;20696;-79
2021/10/05 12:54:38;;;;;;;10.05;1.33;;;;;;;;;;4838547;28;20202;-75
2021/10/05 12:57:05;;;;;;;17.88;2.20;;;;;;;;;;4818707;28;20631;-83
2021/10/05 12:59:27;;;;;;;13.07;1.63;;;;;;;;;;4821477;28;20900;-79
2021/10/05 13:01:50;;;;;;;13.13;1.70;;;;;;;;;;4817761;28;20223;-79
2021/10/05 13:04:15;;;;;;;12.27;1.55;;;42.80;54.00;;;;;;4820534;28;20886;-80
2021/10/05 13:06:38;;;;;;;18.50;2.28;;;;;;;;;;4836709;28;20222;-79
2021/10/05 13:09:04;;;;;;;22.65;2.78;;;40.80;53.30;;;;;;4837848;28;20633;-82
2021/10/05 13:11:27;;;;;;;15.57;1.92;;;;;;;;;;4838005;28;20182;-80
2021/10/05 13:13:50;;;;;;;11.30;1.52;;;;;;;;;;4838268;28;20186;-82
2021/10/05 13:16:13;;;;;;;11.55;1.50;;;;;;;;;;4818074;28;20234;-78
2021/10/05 13:18:36;;;;;;;7.32;1.00;;;;;;;;;;4837941;28;20198;-80
2021/10/05 13:21:22;;;;;;;12.88;1.67;;;34.40;51.10;;;;;;4840269;28;20253;-83
2021/10/05 13:23:45;;;;;;;9.75;1.30;;;;;;;;;;4808344;28;20206;-77
2021/10/05 13:26:09;;;;;;;10.60;1.40;;;31.30;50.00;;;;;;4833219;28;20814;-82
2021/10/05 13:28:32;;;;;;;13.03;1.67;;;;;;;;;;4819520;28;20209;-79
2021/10/05 13:30:55;;;;;;;6.47;0.97;;;;;;;;;;4838700;28;20796;-77